createdAt,value
2019-03-01T00:00:17.720Z,42.70
2019-03-01T00:02:49.730Z,42.40
2019-03-01T00:05:45.614Z,42.40
2019-03-01T00:08:18.441Z,42.50
2019-03-01T00:11:08.170Z,42.40
2019-03-01T00:14:05.175Z,42.40
2019-03-01T00:17:13.899Z,42.50
2019-03-01T00:20:20.441Z,42.60
2019-03-01T00:23:30.155Z,42.60
2019-03-01T00:26:29.005Z,42.60
2019-03-01T00:29:27.284Z,42.60
2019-03-01T00:32:08.012Z,42.60
2019-03-01T00:35:00.818Z,42.80
2019-03-01T00:37:38.311Z,42.80
2019-03-01T00:40:32.442Z,42.80
2019-03-01T00:43:22.485Z,42.80
2019-03-01T00:45:52.673Z,42.90
2019-03-01T00:48:22.791Z,42.90
2019-03-01T00:50:52.937Z,42.80
2019-03-01T00:53:23.056Z,42.90
2019-03-01T00:55:54.986Z,42.90
2019-03-01T00:58:25.114Z,43.00
2019-03-01T01:00:55.254Z,43.00
2019-03-01T01:03:25.384Z,42.90
2019-03-01T01:05:55.509Z,43.00
2019-03-01T01:08:25.639Z,43.00
2019-03-01T01:10:55.772Z,43.10
2019-03-01T01:13:25.900Z,43.10
2019-03-01T01:15:56.076Z,43.20
2019-03-01T01:18:26.214Z,43.00
2019-03-01T01:20:56.350Z,43.10
2019-03-01T01:23:26.477Z,43.20
2019-03-01T01:25:56.608Z,43.20
2019-03-01T01:28:26.744Z,43.20
2019-03-01T01:30:56.881Z,43.20
2019-03-01T01:33:27.030Z,43.20
2019-03-01T01:35:57.159Z,43.20
2019-03-01T01:38:27.291Z,43.30
2019-03-01T01:40:57.418Z,43.20
2019-03-01T01:43:27.553Z,43.20
2019-03-01T01:45:57.685Z,43.30
2019-03-01T01:48:27.882Z,43.20
2019-03-01T01:50:58.009Z,43.30
2019-03-01T01:53:28.149Z,43.30
2019-03-01T01:55:58.277Z,43.30
2019-03-01T01:58:28.414Z,43.30
2019-03-01T02:00:58.541Z,43.30
2019-03-01T02:03:28.681Z,43.30
2019-03-01T02:05:58.811Z,43.30
2019-03-01T02:08:28.944Z,43.30
2019-03-01T02:11:37.919Z,43.30
2019-03-01T02:14:08.092Z,43.40
2019-03-01T02:16:38.202Z,43.40
2019-03-01T02:19:08.398Z,43.30
2019-03-01T02:21:38.519Z,43.40
2019-03-01T02:24:08.653Z,43.30
2019-03-01T02:26:38.783Z,43.40
2019-03-01T02:29:08.910Z,43.40
2019-03-01T02:31:42.636Z,43.40
2019-03-01T02:34:12.776Z,43.30
2019-03-01T02:36:42.902Z,43.40
2019-03-01T02:39:13.033Z,43.40
2019-03-01T02:41:43.161Z,43.30
2019-03-01T02:44:13.309Z,43.40
2019-03-01T02:46:43.435Z,43.40
2019-03-01T02:49:13.637Z,43.40
2019-03-01T02:51:43.781Z,44.00
2019-03-01T02:54:13.937Z,43.50
2019-03-01T02:56:44.072Z,43.50
2019-03-01T02:59:14.212Z,43.50
2019-03-01T03:01:44.340Z,43.50
2019-03-01T03:04:14.481Z,43.50
2019-03-01T03:06:46.242Z,43.40
2019-03-01T03:09:16.393Z,43.50
2019-03-01T03:11:46.500Z,43.50
2019-03-01T03:14:16.617Z,43.60
2019-03-01T03:16:46.823Z,43.50
2019-03-01T03:19:16.952Z,43.60
2019-03-01T03:21:47.084Z,43.60
2019-03-01T03:24:17.232Z,43.60
2019-03-01T03:26:48.564Z,43.60
2019-03-01T03:29:18.964Z,43.60
2019-03-01T03:31:49.101Z,43.50
2019-03-01T03:34:20.202Z,43.60
2019-03-01T03:36:51.296Z,43.70
2019-03-01T03:39:21.422Z,43.60
2019-03-01T03:41:51.569Z,43.60
2019-03-01T03:44:21.708Z,43.70
2019-03-01T03:46:51.852Z,43.70
2019-03-01T03:49:21.991Z,43.80
2019-03-01T03:51:52.127Z,43.60
2019-03-01T03:54:22.281Z,43.70
2019-03-01T03:56:52.444Z,43.50
2019-03-01T03:59:22.654Z,43.60
2019-03-01T04:01:52.777Z,43.50
2019-03-01T04:04:22.971Z,44.00
2019-03-01T04:06:53.101Z,43.50
2019-03-01T04:09:23.260Z,43.60
2019-03-01T04:11:53.420Z,43.50
2019-03-01T04:14:23.566Z,43.60
2019-03-01T04:16:53.697Z,43.50
2019-03-01T04:19:23.993Z,43.50
2019-03-01T04:21:54.141Z,43.50
2019-03-01T04:24:27.233Z,43.50
2019-03-01T04:26:58.266Z,43.50
2019-03-01T04:29:28.400Z,43.50
2019-03-01T04:31:58.529Z,43.50
2019-03-01T04:34:28.683Z,43.50
2019-03-01T04:36:58.810Z,43.50
2019-03-01T04:39:28.977Z,43.50
2019-03-01T04:41:59.093Z,43.50
2019-03-01T04:44:29.257Z,43.40
2019-03-01T04:46:59.447Z,43.50
2019-03-01T04:49:29.570Z,43.40
2019-03-01T04:51:59.717Z,43.40
2019-03-01T04:54:29.842Z,43.20
2019-03-01T04:57:00.092Z,43.20
2019-03-01T04:59:49.651Z,43.10
2019-03-01T05:02:19.786Z,43.10
2019-03-01T05:04:49.922Z,43.20
2019-03-01T05:07:21.076Z,43.00
2019-03-01T05:09:51.238Z,43.10
2019-03-01T05:12:21.367Z,43.10
2019-03-01T05:14:51.485Z,43.10
2019-03-01T05:17:21.626Z,43.00
2019-03-01T05:19:51.750Z,43.00
2019-03-01T05:22:21.916Z,43.00
2019-03-01T05:24:53.063Z,42.90
2019-03-01T05:27:23.194Z,42.90
2019-03-01T05:29:53.308Z,43.00
2019-03-01T05:32:23.478Z,42.90
2019-03-01T05:34:53.608Z,42.90
2019-03-01T05:37:23.771Z,42.70
2019-03-01T05:39:53.898Z,42.80
2019-03-01T05:42:24.110Z,42.70
2019-03-01T05:44:54.238Z,42.80
2019-03-01T05:47:24.402Z,42.80
2019-03-01T05:49:54.522Z,42.70
2019-03-01T05:52:24.727Z,42.80
2019-03-01T05:54:54.982Z,42.80
2019-03-01T05:57:25.106Z,42.70
2019-03-01T05:59:55.277Z,42.70
2019-03-01T06:02:49.318Z,42.80
2019-03-01T06:05:19.503Z,42.80
2019-03-01T06:07:54.458Z,42.80
2019-03-01T06:10:47.154Z,42.80
2019-03-01T06:13:33.926Z,42.80
2019-03-01T06:16:14.631Z,42.70
2019-03-01T06:19:35.859Z,42.90
2019-03-01T06:22:46.371Z,42.90
2019-03-01T06:25:32.915Z,42.80
2019-03-01T06:28:27.204Z,42.80
2019-03-01T06:31:18.204Z,42.60
2019-03-01T06:34:19.543Z,42.50
2019-03-01T06:36:57.268Z,42.50
2019-03-01T06:40:12.852Z,42.50
2019-03-01T06:43:02.303Z,42.40
2019-03-01T06:45:45.783Z,42.40
2019-03-01T06:48:17.563Z,42.40
2019-03-01T06:50:49.331Z,42.40
2019-03-01T06:53:19.472Z,42.40
2019-03-01T06:55:49.685Z,42.40
2019-03-01T06:58:21.629Z,42.40
2019-03-01T07:00:53.435Z,42.40
2019-03-01T07:03:23.569Z,42.50
2019-03-01T07:06:02.947Z,42.40
2019-03-01T07:08:25.607Z,42.40
2019-03-01T07:10:55.773Z,42.50
2019-03-01T07:13:25.883Z,42.50
2019-03-01T07:15:56.010Z,42.40
2019-03-01T07:18:26.143Z,42.40
2019-03-01T07:20:56.268Z,42.50
2019-03-01T07:23:26.415Z,42.50
2019-03-01T07:25:56.616Z,42.50
2019-03-01T07:28:26.816Z,42.50
2019-03-01T07:30:57.038Z,42.50
2019-03-01T07:33:27.158Z,42.50
2019-03-01T07:35:57.279Z,42.50
2019-03-01T07:38:27.405Z,42.60
2019-03-01T07:40:57.587Z,42.60
2019-03-01T07:43:27.724Z,42.50
2019-03-01T07:45:57.854Z,42.50
2019-03-01T07:48:27.992Z,42.50
2019-03-01T07:50:58.150Z,42.50
2019-03-01T07:53:28.329Z,42.50
2019-03-01T07:56:00.736Z,42.60
2019-03-01T07:58:30.317Z,42.60
2019-03-01T08:01:00.449Z,42.60
2019-03-01T08:03:30.653Z,42.60
2019-03-01T08:06:00.819Z,42.60
2019-03-01T08:08:30.909Z,42.60
2019-03-01T08:11:01.170Z,42.60
2019-03-01T08:13:31.324Z,42.60
2019-03-01T08:16:01.463Z,42.60
2019-03-01T08:18:31.596Z,42.60
2019-03-01T08:21:01.745Z,42.70
2019-03-01T08:23:35.071Z,42.50
2019-03-01T08:26:03.811Z,42.60
2019-03-01T08:28:33.936Z,42.60
2019-03-01T08:31:04.629Z,42.60
2019-03-01T08:33:34.881Z,42.60
2019-03-01T08:36:05.695Z,42.70
2019-03-01T08:38:37.097Z,42.60
2019-03-01T08:41:07.213Z,42.60
2019-03-01T08:43:37.372Z,42.70
2019-03-01T08:46:09.612Z,42.70
2019-03-01T08:48:39.341Z,42.70
2019-03-01T08:51:09.466Z,42.60
2019-03-01T08:53:39.631Z,42.70
2019-03-01T08:56:11.044Z,42.60
2019-03-01T08:58:42.524Z,42.70
2019-03-01T09:01:20.770Z,42.70
2019-03-01T09:04:01.267Z,42.60
2019-03-01T09:06:31.452Z,42.70
2019-03-01T09:09:01.591Z,42.70
2019-03-01T09:11:33.334Z,42.70
2019-03-01T09:14:03.481Z,42.60
2019-03-01T09:16:33.769Z,42.70
2019-03-01T09:19:03.926Z,42.60
2019-03-01T09:21:34.075Z,42.80
2019-03-01T09:24:04.275Z,42.70
2019-03-01T09:26:35.634Z,42.80
2019-03-01T09:29:05.852Z,42.80
2019-03-01T09:31:35.988Z,42.80
2019-03-01T09:34:06.367Z,42.70
2019-03-01T09:36:38.065Z,42.80
2019-03-01T09:39:09.340Z,42.80
2019-03-01T09:41:40.619Z,42.80
2019-03-01T09:44:13.273Z,42.80
2019-03-01T09:46:43.367Z,42.80
2019-03-01T09:49:13.496Z,42.80
2019-03-01T09:51:47.436Z,42.80
2019-03-01T09:54:15.469Z,42.80
2019-03-01T09:56:45.659Z,42.80
2019-03-01T09:59:15.793Z,42.80
2019-03-01T10:01:45.919Z,42.80
2019-03-01T10:04:16.054Z,42.90
2019-03-01T10:06:46.172Z,42.80
2019-03-01T10:09:16.355Z,42.80
2019-03-01T10:11:46.462Z,42.80
2019-03-01T10:14:16.641Z,42.80
2019-03-01T10:16:46.770Z,42.80
2019-03-01T10:19:16.900Z,42.80
2019-03-01T10:21:47.036Z,42.80
2019-03-01T10:24:17.156Z,42.80
2019-03-01T10:26:47.333Z,42.80
2019-03-01T10:29:17.516Z,42.80
2019-03-01T10:31:47.731Z,42.80
2019-03-01T10:34:17.923Z,42.90
2019-03-01T10:36:48.055Z,42.80
2019-03-01T10:39:18.202Z,42.80
2019-03-01T10:41:48.768Z,42.90
2019-03-01T10:44:19.005Z,42.80
2019-03-01T10:46:49.322Z,42.90
2019-03-01T10:49:19.456Z,42.80
2019-03-01T10:51:49.661Z,42.90
2019-03-01T10:54:19.759Z,42.80
2019-03-01T10:56:49.913Z,42.90
2019-03-01T10:59:20.039Z,42.80
2019-03-01T11:01:50.345Z,42.80
2019-03-01T11:04:20.478Z,42.80
2019-03-01T11:06:50.630Z,42.90
2019-03-01T11:09:20.775Z,42.90
2019-03-01T11:11:50.902Z,42.90
2019-03-01T11:14:21.093Z,42.90
2019-03-01T11:16:51.239Z,42.90
2019-03-01T11:19:23.311Z,42.90
2019-03-01T11:21:53.499Z,42.90
2019-03-01T11:24:23.628Z,42.90
2019-03-01T11:26:53.771Z,43.00
2019-03-01T11:29:23.901Z,43.00
2019-03-01T11:31:54.043Z,43.00
2019-03-01T11:34:24.165Z,42.90
2019-03-01T11:36:54.475Z,43.00
2019-03-01T11:39:24.773Z,42.90
2019-03-01T11:41:54.928Z,43.00
2019-03-01T11:44:25.064Z,42.90
2019-03-01T11:46:55.221Z,42.90
2019-03-01T11:49:25.343Z,43.00
2019-03-01T11:51:55.559Z,42.90
2019-03-01T11:54:25.695Z,42.90
2019-03-01T11:56:55.848Z,42.90
2019-03-01T11:59:26.067Z,42.90
2019-03-01T12:01:56.202Z,42.90
2019-03-01T12:04:26.409Z,42.90
2019-03-01T12:06:56.555Z,43.00
2019-03-01T12:09:26.691Z,42.90
2019-03-01T12:11:56.841Z,42.90
2019-03-01T12:14:26.957Z,43.10
2019-03-01T12:16:57.096Z,43.10
2019-03-01T12:19:27.226Z,43.00
2019-03-01T12:21:57.496Z,43.10
2019-03-01T12:24:27.635Z,43.00
2019-03-01T12:27:00.912Z,43.00
2019-03-01T12:29:31.229Z,43.00
2019-03-01T12:32:08.140Z,43.00
2019-03-01T12:34:38.355Z,43.00
2019-03-01T12:37:08.536Z,43.60
2019-03-01T12:39:38.734Z,43.00
2019-03-01T12:42:08.897Z,43.10
2019-03-01T12:44:39.027Z,43.10
2019-03-01T12:47:09.334Z,43.10
2019-03-01T12:49:39.486Z,43.10
2019-03-01T12:52:09.695Z,43.10
2019-03-01T12:54:39.832Z,43.10
2019-03-01T12:57:10.027Z,43.10
2019-03-01T12:59:41.210Z,43.10
2019-03-01T13:02:11.558Z,43.10
2019-03-01T13:04:41.753Z,43.10
2019-03-01T13:07:13.214Z,43.10
2019-03-01T13:09:43.894Z,43.10
2019-03-01T13:12:15.112Z,43.10
2019-03-01T13:14:45.237Z,43.10
2019-03-01T13:17:15.388Z,43.10
2019-03-01T13:19:45.687Z,43.10
2019-03-01T13:22:16.139Z,43.10
2019-03-01T13:24:46.348Z,43.10
2019-03-01T13:27:17.439Z,43.10
2019-03-01T13:29:48.711Z,43.10
2019-03-01T13:32:23.172Z,43.10
2019-03-01T13:34:57.832Z,43.10
2019-03-01T13:37:28.586Z,43.10
2019-03-01T13:39:59.222Z,43.10
2019-03-01T13:42:29.407Z,43.10
2019-03-01T13:44:59.531Z,43.10
2019-03-01T13:47:29.700Z,43.10
2019-03-01T13:50:05.678Z,43.10
2019-03-01T13:52:32.294Z,43.10
2019-03-01T13:55:02.483Z,43.10
2019-03-01T13:57:32.691Z,43.10
2019-03-01T14:00:02.946Z,43.10
2019-03-01T14:02:34.176Z,43.10
2019-03-01T14:05:04.749Z,43.10
2019-03-01T14:07:36.194Z,43.10
2019-03-01T14:10:16.588Z,43.10
2019-03-01T14:12:46.748Z,43.00
2019-03-01T14:15:18.046Z,43.00
2019-03-01T14:17:48.180Z,43.10
2019-03-01T14:20:22.272Z,43.10
2019-03-01T14:22:52.433Z,43.10
2019-03-01T14:25:22.550Z,43.00
2019-03-01T14:27:58.830Z,43.10
2019-03-01T14:30:33.072Z,43.10
2019-03-01T14:33:01.030Z,43.10
2019-03-01T14:35:31.595Z,43.10
2019-03-01T14:38:02.076Z,43.10
2019-03-01T14:40:32.448Z,43.10
2019-03-01T14:43:02.820Z,43.10
2019-03-01T14:45:34.848Z,43.10
2019-03-01T14:48:08.580Z,43.10
2019-03-01T14:50:37.007Z,43.10
2019-03-01T14:53:07.280Z,43.10
2019-03-01T14:55:55.627Z,43.10
2019-03-01T14:58:33.771Z,43.10
2019-03-01T15:01:27.602Z,43.10
2019-03-01T15:03:59.111Z,43.10
2019-03-01T15:06:29.248Z,43.10
2019-03-01T15:08:59.388Z,43.10
2019-03-01T15:11:29.510Z,43.10
2019-03-01T15:13:59.650Z,43.20
2019-03-01T15:16:29.779Z,43.20
2019-03-01T15:18:59.998Z,43.20
2019-03-01T15:21:30.126Z,43.20
2019-03-01T15:24:01.409Z,43.10
2019-03-01T15:26:31.677Z,43.10
2019-03-01T15:29:01.818Z,43.10
2019-03-01T15:31:31.953Z,43.10
2019-03-01T15:34:02.110Z,43.10
2019-03-01T15:36:32.234Z,43.10
2019-03-01T15:39:03.643Z,43.10
2019-03-01T15:41:35.401Z,43.10
2019-03-01T15:44:05.564Z,43.10
2019-03-01T15:46:35.684Z,43.00
2019-03-01T15:49:05.823Z,43.00
2019-03-01T15:51:38.206Z,43.00
2019-03-01T15:54:07.786Z,43.50
2019-03-01T15:56:39.527Z,43.00
2019-03-01T15:59:10.451Z,43.10
2019-03-01T16:01:43.727Z,43.10
2019-03-01T16:04:12.562Z,43.10
2019-03-01T16:06:42.763Z,43.10
2019-03-01T16:09:15.037Z,43.00
2019-03-01T16:11:45.157Z,43.10
2019-03-01T16:14:15.463Z,43.00
2019-03-01T16:16:49.061Z,42.90
2019-03-01T16:19:20.353Z,43.00
2019-03-01T16:21:50.475Z,43.00
2019-03-01T16:24:22.188Z,43.00
2019-03-01T16:26:52.507Z,43.00
2019-03-01T16:29:22.889Z,43.00
2019-03-01T16:31:53.216Z,43.00
2019-03-01T16:34:23.360Z,43.00
2019-03-01T16:36:54.534Z,43.00
2019-03-01T16:39:24.906Z,43.00
2019-03-01T16:41:55.252Z,42.90
2019-03-01T16:44:25.603Z,42.90
2019-03-01T16:46:56.579Z,42.90
2019-03-01T16:49:28.291Z,42.90
2019-03-01T16:51:58.475Z,43.00
2019-03-01T16:54:28.690Z,43.00
2019-03-01T16:56:58.833Z,43.00
2019-03-01T16:59:29.029Z,43.00
2019-03-01T17:01:59.345Z,42.90
2019-03-01T17:04:29.557Z,42.90
2019-03-01T17:06:59.967Z,42.90
2019-03-01T17:09:30.405Z,42.90
2019-03-01T17:12:00.843Z,42.90
2019-03-01T17:14:31.438Z,42.90
2019-03-01T17:17:01.863Z,42.90
2019-03-01T17:19:33.032Z,42.90
2019-03-01T17:22:03.160Z,42.90
2019-03-01T17:24:33.459Z,42.90
2019-03-01T17:27:05.568Z,42.90
2019-03-01T17:29:35.749Z,42.90
2019-03-01T17:32:08.348Z,42.90
2019-03-01T17:34:38.474Z,42.90
2019-03-01T17:37:08.693Z,42.90
2019-03-01T17:39:38.822Z,42.90
2019-03-01T17:42:09.089Z,42.90
2019-03-01T17:44:41.382Z,43.00
2019-03-01T17:47:11.560Z,43.00
2019-03-01T17:49:41.781Z,43.00
2019-03-01T17:52:11.921Z,43.00
2019-03-01T17:54:42.052Z,42.90
2019-03-01T17:57:12.182Z,42.90
2019-03-01T17:59:44.618Z,42.90
2019-03-01T18:02:14.991Z,42.90
2019-03-01T18:04:45.836Z,42.90
2019-03-01T18:07:15.982Z,43.00
2019-03-01T18:09:46.128Z,43.50
2019-03-01T18:12:17.439Z,43.00
2019-03-01T18:14:48.079Z,43.00
2019-03-01T18:17:18.235Z,42.90
2019-03-01T18:19:48.351Z,42.80
2019-03-01T18:22:18.510Z,42.80
2019-03-01T18:24:49.924Z,42.80
2019-03-01T18:27:20.863Z,42.80
2019-03-01T18:29:50.991Z,43.30
2019-03-01T18:32:21.211Z,42.80
2019-03-01T18:34:52.513Z,42.80
2019-03-01T18:37:22.661Z,42.90
2019-03-01T18:39:52.790Z,42.90
2019-03-01T18:42:23.000Z,42.80
2019-03-01T18:44:53.127Z,42.70
2019-03-01T18:47:23.339Z,42.80
2019-03-01T18:49:55.295Z,42.80
2019-03-01T18:52:25.446Z,42.80
2019-03-01T18:54:55.576Z,42.80
2019-03-01T18:57:25.718Z,42.80
2019-03-01T18:59:56.494Z,42.80
2019-03-01T19:02:28.773Z,42.80
2019-03-01T19:05:00.675Z,42.80
2019-03-01T19:07:31.517Z,42.80
2019-03-01T19:10:01.699Z,42.80
2019-03-01T19:12:32.558Z,42.80
2019-03-01T19:15:02.714Z,42.80
2019-03-01T19:17:36.777Z,42.80
2019-03-01T19:20:12.931Z,42.70
2019-03-01T19:22:43.118Z,42.80
2019-03-01T19:25:15.300Z,42.80
2019-03-01T19:27:47.095Z,42.80
2019-03-01T19:30:25.541Z,42.80
2019-03-01T19:32:58.945Z,42.80
2019-03-01T19:35:29.769Z,42.80
2019-03-01T19:38:00.973Z,42.80
2019-03-01T19:40:31.076Z,42.80
2019-03-01T19:43:01.302Z,42.80
2019-03-01T19:45:31.542Z,42.80
2019-03-01T19:48:03.358Z,42.70
2019-03-01T19:50:33.686Z,42.80
2019-03-01T19:53:03.826Z,42.80
2019-03-01T19:55:33.976Z,42.80
2019-03-01T19:58:04.132Z,42.80
2019-03-01T20:00:35.308Z,42.80
2019-03-01T20:03:06.593Z,42.80
2019-03-01T20:05:41.813Z,42.80
2019-03-01T20:08:12.072Z,42.80
2019-03-01T20:10:42.200Z,42.80
2019-03-01T20:13:13.081Z,42.80
2019-03-01T20:15:46.178Z,42.70
2019-03-01T20:18:16.080Z,42.80
2019-03-01T20:20:46.267Z,42.70
2019-03-01T20:23:16.508Z,42.70
2019-03-01T20:25:47.487Z,42.80
2019-03-01T20:28:18.563Z,42.80
2019-03-01T20:30:48.676Z,42.80
2019-03-01T20:33:18.918Z,42.80
2019-03-01T20:35:49.117Z,42.80
2019-03-01T20:38:20.280Z,42.70
2019-03-01T20:40:50.478Z,42.80
2019-03-01T20:43:20.694Z,42.80
2019-03-01T20:45:50.825Z,42.70
2019-03-01T20:48:20.954Z,42.80
2019-03-01T20:50:51.928Z,42.70
2019-03-01T20:53:22.435Z,42.70
2019-03-01T20:55:52.657Z,42.80
2019-03-01T20:58:22.785Z,42.70
2019-03-01T21:00:52.953Z,42.70
2019-03-01T21:03:24.100Z,42.70
2019-03-01T21:05:55.288Z,42.80
2019-03-01T21:08:28.701Z,42.70
2019-03-01T21:10:57.482Z,42.80
2019-03-01T21:13:27.619Z,42.80
2019-03-01T21:15:57.830Z,42.70
2019-03-01T21:18:30.741Z,42.80
2019-03-01T21:21:00.722Z,42.80
2019-03-01T21:23:30.926Z,42.70
2019-03-01T21:26:03.711Z,42.70
2019-03-01T21:28:36.616Z,42.70
2019-03-01T21:31:05.819Z,42.70
2019-03-01T21:33:36.246Z,42.70
2019-03-01T21:36:06.382Z,42.70
2019-03-01T21:38:36.506Z,42.70
2019-03-01T21:41:09.784Z,42.60
2019-03-01T21:43:38.459Z,42.70
2019-03-01T21:46:08.665Z,42.70
2019-03-01T21:48:38.807Z,42.60
2019-03-01T21:51:09.020Z,42.60
2019-03-01T21:53:39.825Z,42.70
2019-03-01T21:56:12.159Z,42.60
2019-03-01T21:58:42.907Z,42.70
2019-03-01T22:01:13.890Z,42.70
2019-03-01T22:03:44.045Z,42.70
2019-03-01T22:06:14.253Z,42.70
2019-03-01T22:08:44.839Z,42.70
2019-03-01T22:11:16.661Z,42.70
2019-03-01T22:13:46.967Z,42.70
2019-03-01T22:16:17.144Z,42.70
2019-03-01T22:18:47.281Z,42.70
2019-03-01T22:21:22.609Z,42.70
2019-03-01T22:23:51.566Z,42.70
2019-03-01T22:26:22.234Z,42.70
2019-03-01T22:28:52.369Z,42.70
2019-03-01T22:31:32.620Z,42.80
2019-03-01T22:34:02.692Z,42.70
2019-03-01T22:36:32.899Z,42.80
2019-03-01T22:39:04.361Z,42.80
2019-03-01T22:41:39.253Z,42.80
2019-03-01T22:44:08.106Z,42.80
2019-03-01T22:46:38.363Z,42.80
2019-03-01T22:49:08.490Z,42.80
2019-03-01T22:51:38.621Z,42.80
2019-03-01T22:54:08.762Z,42.80
2019-03-01T22:56:38.904Z,42.80
2019-03-01T22:59:11.920Z,42.80
2019-03-01T23:01:41.348Z,42.80
2019-03-01T23:04:14.627Z,42.80
2019-03-01T23:06:47.549Z,42.80
2019-03-01T23:09:19.061Z,42.80
2019-03-01T23:11:49.193Z,42.80
2019-03-01T23:14:19.337Z,42.80
2019-03-01T23:16:50.641Z,42.80
2019-03-01T23:19:21.289Z,42.80
2019-03-01T23:21:51.912Z,42.80
2019-03-01T23:24:23.004Z,42.80
2019-03-01T23:26:53.551Z,42.80
2019-03-01T23:29:25.042Z,42.80
2019-03-01T23:31:55.185Z,42.90
2019-03-01T23:34:25.303Z,42.80
2019-03-01T23:36:56.036Z,42.90
2019-03-01T23:39:26.427Z,42.90
2019-03-01T23:41:56.555Z,42.90
2019-03-01T23:44:26.679Z,42.90
2019-03-01T23:46:59.515Z,42.90
2019-03-01T23:49:29.630Z,42.90
2019-03-01T23:51:59.782Z,42.80
2019-03-01T23:54:29.927Z,42.80
2019-03-01T23:57:01.926Z,42.90
2019-03-01T23:59:32.847Z,42.90
